Time;durP1;ratioP1;P1;durP2;ratioP2;P2;SDS_P1;SDS_P2;PMS_P1;PMS_P2;Temp;Humidity;BMP_temperature;BMP_pressure;BME280_temperature;BME280_humidity;BME280_pressure;Samples;Min_cycle;Max_cycle;Signal;HPM_P1;HPM_P2
2021/03/18 00:00:28;;;;;;;3.83;3.53;;;;;;;;;;4850274;29;20238;-79
2021/03/18 00:02:59;;;;;;;6.10;4.00;;;;;;;;;;4855340;29;20604;-79
2021/03/18 00:05:28;;;;;;;4.43;4.03;;;;;;;;;;4820347;29;20230;-77
2021/03/18 00:07:56;;;;;;;5.53;4.00;;;;;;;;;;4838722;29;20226;-80
2021/03/18 00:10:24;;;;;;;5.23;4.10;;;;;;;;;;4841277;29;20242;-78
2021/03/18 00:12:52;;;;;;;4.50;3.40;;;;;;;;;;4829242;29;20265;-79
2021/03/18 00:15:21;;;;;;;3.47;3.17;;;;;;;;;;4838162;29;20234;-79
2021/03/18 00:17:49;;;;;;;5.00;3.57;;;;;;;;;;4818067;29;20225;-79
2021/03/18 00:20:19;;;;;;;3.23;2.93;;;;;;;;;;4842182;29;20253;-79
2021/03/18 00:22:47;;;;;;;3.93;2.90;;;;;;;;;;4843053;29;20229;-79
2021/03/18 00:25:17;;;;;;;4.00;3.10;;;;;;;;;;4835831;29;20345;-79
2021/03/18 00:27:46;;;;;;;4.47;3.40;;;;;;;;;;4831937;29;20230;-78
2021/03/18 00:30:17;;;;;;;4.20;3.60;;;;;;;;;;4847722;29;20249;-79
2021/03/18 00:32:46;;;;;;;3.53;3.23;;;;;;;;;;4833809;29;20260;-79
2021/03/18 00:35:15;;;;;;;4.63;4.10;;;;;;;;;;4835547;29;20253;-79
2021/03/18 00:37:46;;;;;;;4.27;3.87;;;;;;;;;;4828371;29;20230;-78
2021/03/18 00:40:17;;;;;;;5.60;3.93;;;;;;;;;;4814472;29;20945;-79
2021/03/18 00:42:53;;;;;;;4.30;3.60;;;;;;;;;;4826444;29;20229;-78
2021/03/18 00:45:22;;;;;;;6.67;4.70;;;;;;;;;;4851429;29;20245;-78
2021/03/18 00:47:50;;;;;;;6.57;4.50;;;;;;;;;;4854056;29;20712;-78
2021/03/18 00:50:25;;;;;;;4.43;3.77;;;;;;;;;;4837818;29;20711;-78
2021/03/18 00:52:54;;;;;;;3.93;3.53;;;;;;;;;;4845618;29;23664;-80
2021/03/18 00:55:21;;;;;;;4.93;3.40;;;;;;;;;;4842787;29;20237;-80
2021/03/18 00:57:49;;;;;;;3.30;3.00;;;;;;;;;;4809577;29;20238;-79
2021/03/18 01:00:20;;;;;;;3.83;3.33;;;;;;;;;;4829045;29;20238;-79
2021/03/18 01:02:52;;;;;;;2.93;2.63;;;;;;;;;;4846302;29;20235;-79
2021/03/18 01:05:27;;;;;;;3.60;3.30;;;;;;;;;;4851581;29;20239;-79
2021/03/18 01:07:56;;;;;;;4.03;3.10;;;;;;;;;;4846787;29;20449;-79
2021/03/18 01:10:26;;;;;;;3.53;3.17;;;;;;;;;;4830429;29;20231;-78
2021/03/18 01:12:54;;;;;;;3.60;3.13;;;;;;;;;;4828104;29;20235;-76
2021/03/18 01:15:23;;;;;;;4.63;3.23;;;;;;;;;;4857645;29;20251;-76
2021/03/18 01:17:50;;;;;;;3.63;2.97;;;;;;;;;;4868472;29;20214;-77
2021/03/18 01:20:19;;;;;;;4.87;3.57;;;;;;;;;;4869051;29;20234;-77
2021/03/18 01:22:46;;;;;;;6.00;3.00;;;;;;;;;;4865928;29;20237;-78
2021/03/18 01:25:16;;;;;;;3.50;3.17;;;;;;;;;;4839510;29;20206;-77
2021/03/18 01:27:44;;;;;;;4.00;3.03;;;;;;;;;;4848500;29;20231;-77
2021/03/18 01:30:14;;;;;;;3.37;3.03;;;;;;;;;;4852104;29;20245;-77
2021/03/18 01:32:42;;;;;;;3.40;2.77;;;;;;;;;;4849000;29;20226;-78
2021/03/18 01:35:13;;;;;;;4.23;3.30;;;;;;;;;;4852432;29;21008;-78
2021/03/18 01:37:41;;;;;;;3.33;3.03;;;;;;;;;;4844778;29;20234;-77
2021/03/18 01:40:12;;;;;;;4.20;3.50;;;;;;;;;;4829156;29;20250;-79
2021/03/18 01:42:42;;;;;;;3.23;2.77;;;;;;;;;;4841101;29;20236;-79
2021/03/18 01:45:12;;;;;;;6.03;3.13;;;;;;;;;;4832817;29;20262;-79
2021/03/18 01:47:41;;;;;;;4.47;3.33;;;;;;;;;;4835043;29;20812;-78
2021/03/18 01:50:11;;;;;;;3.93;3.03;;;;;;;;;;4833385;29;20239;-78
2021/03/18 01:52:39;;;;;;;4.97;3.43;;;;;;;;;;4820735;29;20227;-80
2021/03/18 01:55:09;;;;;;;3.30;3.00;;;;;;;;;;4833433;29;20239;-79
2021/03/18 01:57:37;;;;;;;5.57;3.33;;;;;;;;;;4833283;29;20241;-79
2021/03/18 02:00:10;;;;;;;3.17;2.90;;;;;;;;;;4833246;29;20317;-79
2021/03/18 02:02:55;;;;;;;4.80;3.10;;;;;;;;;;4820371;29;20234;-78
2021/03/18 02:05:23;;;;;;;3.57;3.20;;;;;;;;;;4838758;29;20748;-78
2021/03/18 02:07:53;;;;;;;6.23;3.27;;;;;;;;;;4816396;29;20607;-78
2021/03/18 02:10:22;;;;;;;4.13;3.30;;;;;;;;;;4815306;29;20227;-77
2021/03/18 02:12:50;;;;;;;4.47;3.23;;;;;;;;;;4816124;29;20239;-80
2021/03/18 02:15:21;;;;;;;4.63;3.20;;;;;;;;;;4815414;29;20249;-78
2021/03/18 02:17:54;;;;;;;3.53;3.20;;;;;;;;;;4839752;29;20242;-81
2021/03/18 02:21:12;;;;;;;5.60;3.10;;;;;;;;;;4829211;29;20237;-79
2021/03/18 02:24:02;;;;;;;5.50;3.00;;;;;;;;;;4833354;29;20607;-78
2021/03/18 02:26:45;;;;;;;4.50;3.07;;;;;;;;;;4832081;29;20246;-78
2021/03/18 02:29:37;;;;;;;5.47;3.07;;;;;;;;;;4817802;29;20246;-79
2021/03/18 02:32:15;;;;;;;3.53;3.20;;;;;;;;;;4830936;29;20244;-78
2021/03/18 02:35:25;;;;;;;3.53;3.00;;;;;;;;;;4822462;29;20246;-78
2021/03/18 02:38:03;;;;;;;3.30;3.00;;;;;;;;;;4755362;30;20760;-79
2021/03/18 02:40:33;;;;;;;4.13;3.47;;;;;;;;;;4803815;29;20234;-78
2021/03/18 02:43:05;;;;;;;3.60;3.07;;;;;;;;;;4835533;29;20260;-77
2021/03/18 02:45:37;;;;;;;6.20;3.30;;;;;;;;;;4837061;29;20250;-79
2021/03/18 02:48:08;;;;;;;3.23;2.83;;;;;;;;;;4832681;29;20231;-79
2021/03/18 02:50:38;;;;;;;3.30;2.97;;;;;;;;;;4822000;29;20593;-79
2021/03/18 02:53:07;;;;;;;4.30;3.03;;;;;;;;;;4819883;29;20265;-78
2021/03/18 02:55:37;;;;;;;3.97;2.93;;;;;;;;;;4803850;29;20238;-79
2021/03/18 02:58:06;;;;;;;4.30;3.10;;;;;;;;;;4839274;29;20245;-79
2021/03/18 03:00:34;;;;;;;4.70;3.20;;;;;;;;;;4813051;29;20241;-78
2021/03/18 03:03:02;;;;;;;5.57;3.53;;;;;;;;;;4866071;29;20234;-77
2021/03/18 03:05:42;;;;;;;3.60;3.20;;;;;;;;;;5118946;27;20651;-78
2021/03/18 03:08:10;;;;;;;5.03;3.23;;;;;;;;;;5114104;27;20766;-79
2021/03/18 03:10:38;;;;;;;4.47;3.20;;;;;;;;;;5107740;27;20241;-78
2021/03/18 03:13:07;;;;;;;5.77;3.20;;;;;;;;;;5103493;27;20257;-78
2021/03/18 03:15:35;;;;;;;4.40;3.07;;;;;;;;;;5089597;28;20233;-78
2021/03/18 03:18:06;;;;;;;4.07;3.40;;;;;;;;;;5081043;28;20588;-78
2021/03/18 03:20:34;;;;;;;3.73;3.30;;;;;;;;;;5080681;28;20232;-77
2021/03/18 03:23:05;;;;;;;3.87;3.00;;;;;;;;;;5090246;27;20690;-78
2021/03/18 03:25:33;;;;;;;6.97;3.40;;;;;;;;;;5109362;27;20243;-78
2021/03/18 03:28:02;;;;;;;4.70;3.90;;;;;;;;;;5104816;27;20221;-77
2021/03/18 03:30:30;;;;;;;3.53;2.80;;;;;;;;;;5126186;27;20225;-76
2021/03/18 03:32:58;;;;;;;2.90;2.50;;;;;;;;;;5097088;27;20236;-77
2021/03/18 03:35:26;;;;;;;4.70;3.20;;;;;;;;;;5115165;27;20213;-79
2021/03/18 03:37:54;;;;;;;4.17;3.00;;;;;;;;;;5100903;27;20276;-79
2021/03/18 03:40:22;;;;;;;3.93;2.77;;;;;;;;;;5093788;27;20228;-80
2021/03/18 03:42:50;;;;;;;5.03;2.93;;;;;;;;;;5113137;27;20519;-79
2021/03/18 03:45:18;;;;;;;3.03;2.70;;;;;;;;;;5085627;28;20240;-79
2021/03/18 03:47:47;;;;;;;4.40;2.60;;;;;;;;;;5113958;27;20536;-79
2021/03/18 03:50:17;;;;;;;5.33;3.00;;;;;;;;;;5112579;27;20709;-76
2021/03/18 03:52:53;;;;;;;4.23;3.10;;;;;;;;;;5121658;27;20246;-76
2021/03/18 03:55:28;;;;;;;3.10;2.80;;;;;;;;;;5145920;27;20228;-76
2021/03/18 03:57:59;;;;;;;5.23;3.13;;;;;;;;;;5131939;27;20212;-78
2021/03/18 04:00:28;;;;;;;3.87;3.00;;;;;;;;;;5129075;27;20233;-76
2021/03/18 04:03:00;;;;;;;5.87;3.70;;;;;;;;;;5128666;27;20663;-75
2021/03/18 04:05:29;;;;;;;6.10;3.40;;;;;;;;;;5112693;27;20236;-78
2021/03/18 04:08:01;;;;;;;3.87;3.20;;;;;;;;;;5111155;27;21717;-78
2021/03/18 04:10:31;;;;;;;4.47;3.27;;;;;;;;;;5102510;27;20228;-78
2021/03/18 04:12:59;;;;;;;3.57;2.93;;;;;;;;;;5122923;27;20213;-78
2021/03/18 04:15:29;;;;;;;3.20;2.77;;;;;;;;;;5106193;27;20512;-77
2021/03/18 04:17:59;;;;;;;4.27;2.90;;;;;;;;;;5079377;27;20229;-78
2021/03/18 04:20:27;;;;;;;3.77;2.97;;;;;;;;;;5100055;28;20205;-76
2021/03/18 04:22:58;;;;;;;4.67;3.20;;;;;;;;;;5121064;27;20212;-76
2021/03/18 04:25:26;;;;;;;5.00;3.03;;;;;;;;;;5112549;27;20236;-76
2021/03/18 04:27:57;;;;;;;3.97;3.43;;;;;;;;;;5087573;27;20221;-77
2021/03/18 04:30:27;;;;;;;4.97;3.43;;;;;;;;;;5090684;28;20228;-77
2021/03/18 04:32:56;;;;;;;4.07;3.00;;;;;;;;;;5097038;27;20234;-78
2021/03/18 04:35:25;;;;;;;3.83;3.43;;;;;;;;;;5094515;27;20222;-78
2021/03/18 04:37:53;;;;;;;5.03;3.60;;;;;;;;;;5119925;27;20224;-78
2021/03/18 04:40:22;;;;;;;4.23;3.27;;;;;;;;;;5088066;28;20217;-78
2021/03/18 04:42:50;;;;;;;4.67;3.70;;;;;;;;;;5081229;27;20233;-78
2021/03/18 04:45:21;;;;;;;4.30;3.47;;;;;;;;;;5086111;27;20636;-78
2021/03/18 04:47:51;;;;;;;4.20;3.50;;;;;;;;;;5098826;27;20217;-79
2021/03/18 04:50:22;;;;;;;4.23;3.50;;;;;;;;;;5096708;28;20234;-78
2021/03/18 04:52:50;;;;;;;6.83;3.80;;;;;;;;;;5106932;27;20221;-78
2021/03/18 04:55:20;;;;;;;5.30;3.80;;;;;;;;;;5093939;27;20248;-78
2021/03/18 04:57:53;;;;;;;3.83;3.30;;;;;;;;;;5100877;27;20619;-78
2021/03/18 05:00:23;;;;;;;5.80;3.63;;;;;;;;;;5111383;27;20238;-78
2021/03/18 05:02:51;;;;;;;7.23;3.53;;;;;;;;;;5089218;27;20240;-78
2021/03/18 05:05:20;;;;;;;4.50;3.73;;;;;;;;;;5088394;28;20224;-78
2021/03/18 05:07:51;;;;;;;5.13;4.00;;;;;;;;;;5082008;27;20249;-79
2021/03/18 05:10:21;;;;;;;6.00;4.03;;;;;;;;;;5106851;27;20400;-78
2021/03/18 05:12:49;;;;;;;5.30;3.97;;;;;;;;;;5097302;27;20299;-77
2021/03/18 05:15:18;;;;;;;6.13;4.23;;;;;;;;;;5101093;27;20228;-79
2021/03/18 05:17:47;;;;;;;6.33;4.00;;;;;;;;;;5094203;27;20236;-77
2021/03/18 05:20:18;;;;;;;4.20;3.80;;;;;;;;;;5102736;28;20229;-76
2021/03/18 05:22:47;;;;;;;5.37;3.87;;;;;;;;;;5087437;27;20729;-79
2021/03/18 05:25:15;;;;;;;4.10;3.67;;;;;;;;;;5105039;27;20232;-79
2021/03/18 05:27:43;;;;;;;6.03;3.90;;;;;;;;;;5104002;28;20237;-79
2021/03/18 05:30:13;;;;;;;6.07;4.10;;;;;;;;;;5106822;28;20244;-76
2021/03/18 05:32:42;;;;;;;5.60;4.00;;;;;;;;;;5107621;27;20231;-78
2021/03/18 05:35:25;;;;;;;4.93;4.10;;;;;;;;;;5111323;27;20232;-77
2021/03/18 05:37:53;;;;;;;7.10;4.07;;;;;;;;;;5086224;27;20740;-78
2021/03/18 05:40:21;;;;;;;6.63;3.97;;;;;;;;;;5090696;28;20597;-78
2021/03/18 05:42:49;;;;;;;5.23;4.07;;;;;;;;;;5107831;28;20224;-76
2021/03/18 05:45:18;;;;;;;5.60;4.40;;;;;;;;;;5123367;27;20235;-77
2021/03/18 05:47:46;;;;;;;5.37;4.20;;;;;;;;;;5103449;27;20221;-77
2021/03/18 05:50:17;;;;;;;10.03;4.40;;;;;;;;;;5125696;27;20209;-77
2021/03/18 05:52:49;;;;;;;5.87;4.60;;;;;;;;;;5116302;27;20221;-77
2021/03/18 05:55:19;;;;;;;5.80;4.30;;;;;;;;;;5104632;28;20252;-76
2021/03/18 05:57:48;;;;;;;7.17;4.47;;;;;;;;;;5120111;27;20239;-76
2021/03/18 06:00:17;;;;;;;6.30;4.00;;;;;;;;;;5121526;27;20754;-76
2021/03/18 06:02:50;;;;;;;5.13;4.63;;;;;;;;;;5121724;27;20229;-76
2021/03/18 06:05:19;;;;;;;5.67;4.30;;;;;;;;;;5127834;27;20223;-76
2021/03/18 06:07:49;;;;;;;6.33;4.70;;;;;;;;;;5125966;27;20236;-76
2021/03/18 06:10:19;;;;;;;7.20;4.93;;;;;;;;;;5096196;28;20222;-76
2021/03/18 06:12:49;;;;;;;6.40;4.80;;;;;;;;;;5116624;27;20225;-77
2021/03/18 06:15:17;;;;;;;5.90;4.90;;;;;;;;;;5122892;27;20243;-77
2021/03/18 06:17:45;;;;;;;6.53;4.97;;;;;;;;;;5108394;27;20222;-78
2021/03/18 06:20:15;;;;;;;6.07;5.10;;;;;;;;;;5097264;27;20225;-78
2021/03/18 06:22:45;;;;;;;8.47;5.37;;;;;;;;;;5097873;27;20222;-79
2021/03/18 06:25:24;;;;;;;7.53;4.77;;;;;;;;;;5100706;27;20229;-80
2021/03/18 06:28:12;;;;;;;5.77;5.17;;;;;;;;;;5092091;27;20226;-78
2021/03/18 06:30:40;;;;;;;7.20;5.80;;;;;;;;;;5092738;27;20230;-78
2021/03/18 06:33:19;;;;;;;6.80;5.70;;;;;;;;;;5087042;27;20242;-78
2021/03/18 06:35:47;;;;;;;6.07;4.97;;;;;;;;;;5083130;27;20230;-78
2021/03/18 06:38:15;;;;;;;6.13;4.87;;;;;;;;;;5096110;27;20222;-78
2021/03/18 06:40:46;;;;;;;5.67;5.07;;;;;;;;;;5074183;27;20229;-78
2021/03/18 06:43:14;;;;;;;7.63;5.17;;;;;;;;;;5098752;27;20693;-78
2021/03/18 06:45:43;;;;;;;6.67;5.53;;;;;;;;;;5091533;27;20230;-78
2021/03/18 06:48:13;;;;;;;7.13;5.37;;;;;;;;;;5078600;28;20230;-77
2021/03/18 06:50:42;;;;;;;7.33;5.27;;;;;;;;;;5097007;27;20225;-79
2021/03/18 06:53:23;;;;;;;5.90;4.90;;;;;;;;;;5082569;28;20233;-78
2021/03/18 06:55:52;;;;;;;5.80;5.20;;;;;;;;;;5099879;27;20221;-78
2021/03/18 06:58:23;;;;;;;6.90;5.40;;;;;;;;;;5086766;28;20218;-79
2021/03/18 07:00:52;;;;;;;5.70;5.10;;;;;;;;;;5101988;27;20727;-77
2021/03/18 07:03:25;;;;;;;9.13;5.40;;;;;;;;;;5033686;28;20233;-76
2021/03/18 07:05:53;;;;;;;7.83;5.83;;;;;;;;;;5080293;27;20233;-76
2021/03/18 07:08:22;;;;;;;7.67;5.60;;;;;;;;;;5097370;27;20213;-77
2021/03/18 07:10:50;;;;;;;8.93;5.20;;;;;;;;;;5090481;27;20217;-80
2021/03/18 07:13:21;;;;;;;7.27;5.67;;;;;;;;;;5108667;27;20229;-76
2021/03/18 07:15:51;;;;;;;10.37;5.70;;;;;;;;;;5110489;27;20223;-76
2021/03/18 07:18:19;;;;;;;6.03;5.20;;;;;;;;;;5078935;28;20246;-78
2021/03/18 07:21:08;;;;;;;8.33;5.63;;;;;;;;;;5092894;27;20232;-77
2021/03/18 07:23:38;;;;;;;7.40;5.47;;;;;;;;;;5077550;28;20229;-78
2021/03/18 07:26:14;;;;;;;6.80;5.40;;;;;;;;;;5088020;28;20729;-78
2021/03/18 07:28:45;;;;;;;9.17;5.70;;;;;;;;;;5083677;28;20224;-76
2021/03/18 07:31:13;;;;;;;8.80;6.07;;;;;;;;;;5082273;28;20234;-76
2021/03/18 07:33:43;;;;;;;8.93;6.17;;;;;;;;;;5088943;27;20565;-77
2021/03/18 07:36:11;;;;;;;7.90;5.30;;;;;;;;;;5089698;27;20221;-76
2021/03/18 07:38:40;;;;;;;6.87;6.03;;;;;;;;;;5077591;27;20228;-77
2021/03/18 07:41:12;;;;;;;10.10;5.80;;;;;;;;;;5085093;27;20226;-76
2021/03/18 07:43:42;;;;;;;10.73;6.27;;;;;;;;;;5061910;28;20225;-77
2021/03/18 07:46:13;;;;;;;7.77;6.33;;;;;;;;;;5082926;27;20230;-77
2021/03/18 07:48:41;;;;;;;8.43;5.73;;;;;;;;;;5100082;27;20222;-76
2021/03/18 07:51:09;;;;;;;9.00;6.50;;;;;;;;;;5132312;27;20206;-76
2021/03/18 07:53:37;;;;;;;8.20;6.40;;;;;;;;;;5116522;28;20228;-76
2021/03/18 07:56:11;;;;;;;8.40;6.30;;;;;;;;;;5105579;28;20221;-76
2021/03/18 07:58:39;;;;;;;8.30;7.03;;;;;;;;;;5084755;27;20707;-77
2021/03/18 08:01:08;;;;;;;7.63;6.83;;;;;;;;;;5096944;28;20226;-76
2021/03/18 08:03:36;;;;;;;9.73;6.67;;;;;;;;;;5094864;28;20805;-77
2021/03/18 08:06:04;;;;;;;10.53;7.17;;;;;;;;;;5068549;28;20240;-77
2021/03/18 08:08:39;;;;;;;9.23;7.43;;;;;;;;;;5076471;28;20530;-77
2021/03/18 08:11:09;;;;;;;9.67;7.77;;;;;;;;;;5088348;27;20231;-77
2021/03/18 08:13:37;;;;;;;9.03;7.50;;;;;;;;;;5092863;27;20593;-77
2021/03/18 08:16:06;;;;;;;11.33;8.40;;;;;;;;;;5090319;27;20241;-77
2021/03/18 08:18:37;;;;;;;9.53;8.10;;;;;;;;;;5095517;27;20715;-77
2021/03/18 08:21:10;;;;;;;9.57;7.93;;;;;;;;;;5078749;28;20230;-77
2021/03/18 08:23:39;;;;;;;10.37;7.97;;;;;;;;;;5075807;28;20316;-77
2021/03/18 08:26:08;;;;;;;10.77;8.07;;;;;;;;;;5058568;28;20236;-77
2021/03/18 08:28:41;;;;;;;16.73;8.57;;;;;;;;;;5072511;28;20221;-78
2021/03/18 08:31:15;;;;;;;12.23;8.33;;;;;;;;;;5087362;27;20233;-77
2021/03/18 08:33:48;;;;;;;11.57;8.27;;;;;;;;;;5115258;27;20212;-77
2021/03/18 08:36:21;;;;;;;10.13;7.90;;;;;;;;;;5103860;28;20214;-76
2021/03/18 08:38:48;;;;;;;10.13;6.90;;;;;;;;;;5118247;27;20216;-76
2021/03/18 08:41:28;;;;;;;10.43;6.93;;;;;;;;;;5121615;27;20208;-77
2021/03/18 08:44:16;;;;;;;9.37;6.50;;;;;;;;;;5123612;27;20212;-76
2021/03/18 08:46:48;;;;;;;9.57;6.03;;;;;;;;;;5106776;27;21427;-79
2021/03/18 08:49:27;;;;;;;14.60;7.63;;;;;;;;;;5082292;28;20218;-77
2021/03/18 08:51:56;;;;;;;9.87;6.63;;;;;;;;;;5097153;27;20218;-78
2021/03/18 08:54:54;;;;;;;11.37;6.10;;;;;;;;;;5093986;28;20229;-78
2021/03/18 08:57:24;;;;;;;8.90;6.40;;;;;;;;;;5051474;28;20210;-77
2021/03/18 08:59:54;;;;;;;9.83;6.50;;;;;;;;;;5098681;27;20725;-77
2021/03/18 09:02:28;;;;;;;9.43;6.77;;;;;;;;;;5078023;28;20217;-77
2021/03/18 09:04:58;;;;;;;10.73;6.40;;;;;;;;;;5043668;27;20231;-77
2021/03/18 09:07:27;;;;;;;9.27;6.53;;;;;;;;;;4944731;27;20225;-77
2021/03/18 09:10:07;;;;;;;10.67;7.00;;;;;;;;;;4921132;27;22008;-77
2021/03/18 09:12:37;;;;;;;10.67;6.70;;;;;;;;;;4977711;28;20253;-77
2021/03/18 09:15:12;;;;;;;16.57;6.87;;;;;;;;;;4941474;28;24316;-77
2021/03/18 09:17:40;;;;;;;11.30;6.50;;;;;;;;;;4913241;27;20365;-77
2021/03/18 09:20:12;;;;;;;8.57;6.23;;;;;;;;;;4924353;27;21519;-79
2021/03/18 09:22:40;;;;;;;10.93;7.27;;;;;;;;;;4906940;27;21527;-77
2021/03/18 09:25:09;;;;;;;11.00;6.93;;;;;;;;;;4909386;27;20352;-78
2021/03/18 09:27:39;;;;;;;12.30;7.20;;;;;;;;;;4885101;28;20269;-77
2021/03/18 09:30:24;;;;;;;12.37;7.03;;;;;;;;;;4903285;27;21657;-80
2021/03/18 09:32:52;;;;;;;11.20;6.83;;;;;;;;;;4903023;27;20737;-79
2021/03/18 09:35:23;;;;;;;9.23;6.90;;;;;;;;;;4909239;28;21032;-78
2021/03/18 09:37:58;;;;;;;8.63;6.67;;;;;;;;;;4901503;27;21120;-79
2021/03/18 09:40:34;;;;;;;7.30;5.63;;;;;;;;;;4918571;28;21054;-79
2021/03/18 09:43:04;;;;;;;10.87;5.93;;;;;;;;;;4902987;28;21222;-77
2021/03/18 09:45:32;;;;;;;6.63;4.97;;;;;;;;;;4913808;28;21039;-79
2021/03/18 09:47:59;;;;;;;6.87;4.33;;;;;;;;;;4911503;27;23016;-80
2021/03/18 09:50:30;;;;;;;7.23;4.90;;;;;;;;;;4935493;27;20252;-77
2021/03/18 09:53:09;;;;;;;6.27;5.03;;;;;;;;;;4907445;28;20326;-78
2021/03/18 09:55:38;;;;;;;5.87;4.77;;;;;;;;;;4899882;27;20233;-77
2021/03/18 09:58:11;;;;;;;5.00;4.50;;;;;;;;;;4886037;28;20273;-80
2021/03/18 10:00:39;;;;;;;7.47;5.63;;;;;;;;;;4888980;28;20959;-77
2021/03/18 10:03:07;;;;;;;8.83;5.80;;;;;;;;;;4902348;27;21013;-79
2021/03/18 10:05:36;;;;;;;9.00;5.87;;;;;;;;;;4902836;28;20956;-78
2021/03/18 10:08:05;;;;;;;9.37;5.93;;;;;;;;;;4919907;28;20346;-77
2021/03/18 10:10:34;;;;;;;7.07;5.40;;;;;;;;;;4914318;28;20269;-79
2021/03/18 10:13:02;;;;;;;8.40;5.57;;;;;;;;;;4885900;28;20289;-78
2021/03/18 10:15:30;;;;;;;7.30;5.23;;;;;;;;;;4947494;27;20238;-79
2021/03/18 10:17:58;;;;;;;5.77;4.77;;;;;;;;;;4947171;27;21121;-83
2021/03/18 10:20:31;;;;;;;7.40;5.53;;;;;;;;;;4990422;28;20221;-78
2021/03/18 10:23:04;;;;;;;8.20;6.03;;;;;;;;;;4984171;28;23583;-80
2021/03/18 10:25:34;;;;;;;7.20;5.67;;;;;;;;;;4950697;28;20658;-80
2021/03/18 10:28:05;;;;;;;7.13;5.50;;;;;;;;;;4930664;27;20715;-80
2021/03/18 10:30:34;;;;;;;8.87;6.10;;;;;;;;;;4907551;28;21586;-86
2021/03/18 10:33:14;;;;;;;7.10;5.53;;;;;;;;;;4930708;28;21045;-82
2021/03/18 10:35:44;;;;;;;8.40;5.63;;;;;;;;;;4934894;28;20809;-84
2021/03/18 10:38:15;;;;;;;7.63;6.47;;;;;;;;;;4943789;27;20364;-84
2021/03/18 10:40:45;;;;;;;7.03;5.93;;;;;;;;;;4934001;28;23804;-80
2021/03/18 10:43:19;;;;;;;8.57;6.17;;;;;;;;;;4935773;28;20414;-77
2021/03/18 10:45:48;;;;;;;9.77;7.13;;;;;;;;;;4964450;27;20237;-84
2021/03/18 10:48:22;;;;;;;9.63;6.60;;;;;;;;;;4933978;28;20798;-80
2021/03/18 10:50:51;;;;;;;10.20;6.83;;;;;;;;;;4949372;27;21205;-84
2021/03/18 10:53:21;;;;;;;11.70;7.73;;;;;;;;;;4935236;28;20764;-84
2021/03/18 10:56:09;;;;;;;8.87;6.67;;;;;;;;;;4953676;28;20265;-80
2021/03/18 10:58:37;;;;;;;9.47;6.27;;;;;;;;;;4969167;28;20591;-78
2021/03/18 11:01:06;;;;;;;9.50;6.17;;;;;;;;;;4944107;28;20225;-79
2021/03/18 11:03:36;;;;;;;8.30;6.87;;;;;;;;;;4944746;28;20692;-83
2021/03/18 11:06:13;;;;;;;8.43;5.80;;;;;;;;;;4939822;28;21569;-80
2021/03/18 11:08:44;;;;;;;6.20;4.03;;;;;;;;;;4966568;28;20229;-78
2021/03/18 11:11:13;;;;;;;5.93;3.83;;;;;;;;;;4964901;28;20723;-80
2021/03/18 11:13:43;;;;;;;5.93;3.53;;;;;;;;;;5025415;28;20218;-77
2021/03/18 11:16:11;;;;;;;5.10;3.70;;;;;;;;;;5088208;27;20236;-77
2021/03/18 11:18:41;;;;;;;4.30;3.50;;;;;;;;;;5073279;28;20266;-77
2021/03/18 11:21:22;;;;;;;6.97;3.40;;;;;;;;;;5085085;28;20218;-77
2021/03/18 11:23:52;;;;;;;5.50;3.60;;;;;;;;;;5091157;27;20221;-77
2021/03/18 11:26:22;;;;;;;4.87;3.27;;;;;;;;;;5099182;28;20222;-79
2021/03/18 11:28:55;;;;;;;5.47;3.73;;;;;;;;;;5088419;28;20214;-81
2021/03/18 11:31:24;;;;;;;5.70;3.83;;;;;;;;;;5081584;28;20229;-78
2021/03/18 11:33:53;;;;;;;6.57;4.10;;;;;;;;;;5107617;28;20225;-77
2021/03/18 11:36:21;;;;;;;5.20;4.10;;;;;;;;;;5102613;28;20243;-78
2021/03/18 11:38:49;;;;;;;6.50;4.10;;;;;;;;;;5096002;27;20710;-78
2021/03/18 11:41:18;;;;;;;6.37;4.40;;;;;;;;;;5084125;28;20218;-78
2021/03/18 11:43:45;;;;;;;8.17;5.03;;;;;;;;;;4970103;27;20936;-78
2021/03/18 11:46:13;;;;;;;9.00;5.93;;;;;;;;;;4955314;27;20262;-79
2021/03/18 11:48:41;;;;;;;9.97;6.37;;;;;;;;;;4954142;27;20249;-78
2021/03/18 11:51:09;;;;;;;11.37;6.43;;;;;;;;;;4930380;28;20264;-79
2021/03/18 11:53:36;;;;;;;11.00;5.97;;;;;;;;;;4945343;27;20991;-79
2021/03/18 11:56:04;;;;;;;8.03;5.37;;;;;;;;;;4943163;28;20346;-81
2021/03/18 11:58:33;;;;;;;6.80;5.10;;;;;;;;;;4949991;27;21530;-79
2021/03/18 12:01:01;;;;;;;6.83;4.87;;;;;;;;;;4933906;28;20699;-81
2021/03/18 12:03:29;;;;;;;7.60;4.73;;;;;;;;;;4926772;27;22013;-79
2021/03/18 12:06:00;;;;;;;6.90;5.00;;;;;;;;;;4944036;28;20874;-78
2021/03/18 12:08:28;;;;;;;6.87;4.57;;;;;;;;;;4952121;27;21019;-81
2021/03/18 12:11:06;;;;;;;7.53;4.10;;;;;;;;;;4950868;27;20948;-78
2021/03/18 12:13:36;;;;;;;5.97;4.30;;;;;;;;;;4955459;27;20847;-79
2021/03/18 12:16:06;;;;;;;5.70;4.10;;;;;;;;;;4966175;27;20253;-81
2021/03/18 12:18:34;;;;;;;6.10;4.23;;;;;;;;;;4960069;27;21008;-82
2021/03/18 12:21:02;;;;;;;6.40;3.90;;;;;;;;;;4938231;28;20221;-80
2021/03/18 12:23:30;;;;;;;4.60;3.93;;;;;;;;;;4944425;28;20264;-83
2021/03/18 12:25:57;;;;;;;5.27;4.10;;;;;;;;;;4962766;27;21059;-81
2021/03/18 12:28:26;;;;;;;5.03;4.20;;;;;;;;;;4947436;27;20803;-78
2021/03/18 12:30:54;;;;;;;5.03;3.70;;;;;;;;;;4942852;27;21254;-78
2021/03/18 12:33:22;;;;;;;7.47;4.30;;;;;;;;;;4930702;28;21031;-80
2021/03/18 12:35:51;;;;;;;6.20;4.10;;;;;;;;;;4930078;27;20715;-77
2021/03/18 12:38:21;;;;;;;6.10;4.10;;;;;;;;;;4942726;27;20796;-83
2021/03/18 12:40:49;;;;;;;5.07;4.07;;;;;;;;;;4950646;27;20273;-82
2021/03/18 12:43:17;;;;;;;5.17;4.10;;;;;;;;;;4928531;28;20818;-82
2021/03/18 12:45:45;;;;;;;4.57;3.73;;;;;;;;;;4934546;27;20275;-80
2021/03/18 12:48:14;;;;;;;4.30;3.70;;;;;;;;;;4961548;27;20272;-84
2021/03/18 12:50:45;;;;;;;5.40;3.73;;;;;;;;;;4947027;27;20266;-80
2021/03/18 12:53:13;;;;;;;4.83;4.07;;;;;;;;;;4956616;27;23528;-79
2021/03/18 12:55:41;;;;;;;5.17;4.40;;;;;;;;;;4924289;27;20272;-79
2021/03/18 12:58:09;;;;;;;4.27;3.73;;;;;;;;;;4948993;28;20950;-84
2021/03/18 13:00:37;;;;;;;5.67;4.20;;;;;;;;;;4938292;28;22349;-79
2021/03/18 13:03:05;;;;;;;4.40;3.93;;;;;;;;;;4951546;27;21889;-82
2021/03/18 13:05:35;;;;;;;6.30;4.10;;;;;;;;;;4964032;27;20800;-79
2021/03/18 13:08:04;;;;;;;4.17;3.73;;;;;;;;;;4908012;28;20364;-81
2021/03/18 13:10:32;;;;;;;6.37;4.30;;;;;;;;;;4939096;28;20365;-79
2021/03/18 13:13:00;;;;;;;5.03;4.40;;;;;;;;;;4919671;27;21060;-83
2021/03/18 13:15:28;;;;;;;5.33;4.40;;;;;;;;;;4939984;27;20274;-84
2021/03/18 13:17:56;;;;;;;6.93;5.10;;;;;;;;;;4936711;27;20253;-82
2021/03/18 13:20:24;;;;;;;5.50;4.43;;;;;;;;;;4933678;27;20508;-81
2021/03/18 13:22:53;;;;;;;6.20;5.03;;;;;;;;;;4917803;28;20840;-81
2021/03/18 13:25:24;;;;;;;5.97;4.30;;;;;;;;;;4933196;28;24495;-82
2021/03/18 13:27:52;;;;;;;7.10;5.10;;;;;;;;;;4937839;28;20785;-79
2021/03/18 13:30:23;;;;;;;7.23;4.87;;;;;;;;;;4922078;28;20332;-80
2021/03/18 13:32:53;;;;;;;11.47;5.80;;;;;;;;;;4934184;27;20371;-83
2021/03/18 13:35:38;;;;;;;7.77;5.20;;;;;;;;;;4926506;27;20280;-78
2021/03/18 13:38:07;;;;;;;5.40;4.20;;;;;;;;;;4913851;28;20855;-79
2021/03/18 13:40:38;;;;;;;5.93;4.43;;;;;;;;;;4934277;27;20608;-80
2021/03/18 13:43:06;;;;;;;5.40;4.53;;;;;;;;;;4914999;27;20774;-81
2021/03/18 13:45:35;;;;;;;6.70;4.63;;;;;;;;;;4936364;27;20241;-81
2021/03/18 13:48:03;;;;;;;7.77;5.10;;;;;;;;;;4931768;28;20245;-82
2021/03/18 13:50:33;;;;;;;7.63;5.17;;;;;;;;;;4942311;27;20356;-78
2021/03/18 13:53:02;;;;;;;6.03;4.50;;;;;;;;;;4931720;27;20377;-80
2021/03/18 13:55:31;;;;;;;10.03;4.00;;;;;;;;;;4948726;27;20324;-84
2021/03/18 13:57:59;;;;;;;5.00;3.67;;;;;;;;;;4937334;28;20293;-77
2021/03/18 14:00:27;;;;;;;6.50;3.47;;;;;;;;;;4961916;27;20241;-79
2021/03/18 14:02:55;;;;;;;5.00;3.80;;;;;;;;;;4950929;28;20240;-83
2021/03/18 14:05:24;;;;;;;4.77;3.87;;;;;;;;;;4951506;28;20534;-81
2021/03/18 14:07:51;;;;;;;4.60;3.27;;;;;;;;;;4979245;27;20233;-81
2021/03/18 14:10:20;;;;;;;5.00;3.87;;;;;;;;;;5091518;27;20580;-78
2021/03/18 14:12:50;;;;;;;4.60;3.57;;;;;;;;;;5097181;27;20595;-78
2021/03/18 14:15:21;;;;;;;8.47;3.70;;;;;;;;;;5098117;27;20241;-76
2021/03/18 14:17:49;;;;;;;5.33;3.70;;;;;;;;;;5084497;27;20236;-78
2021/03/18 14:20:26;;;;;;;9.53;4.43;;;;;;;;;;5095366;27;20599;-77
2021/03/18 14:22:53;;;;;;;5.30;3.90;;;;;;;;;;5092009;27;20232;-77
2021/03/18 14:25:22;;;;;;;5.70;4.03;;;;;;;;;;5092016;27;20236;-77
2021/03/18 14:27:51;;;;;;;4.60;4.03;;;;;;;;;;5084181;27;20249;-79
2021/03/18 14:30:30;;;;;;;7.87;4.33;;;;;;;;;;5096964;27;20602;-78
2021/03/18 14:33:00;;;;;;;7.60;4.70;;;;;;;;;;5103118;27;20225;-77
2021/03/18 14:35:28;;;;;;;7.27;5.43;;;;;;;;;;5103758;27;20233;-77
2021/03/18 14:37:56;;;;;;;8.20;5.03;;;;;;;;;;5102932;27;20225;-76
2021/03/18 14:41:10;;;;;;;6.97;5.10;;;;;;;;;;5096885;27;20235;-77
2021/03/18 14:43:38;;;;;;;6.80;5.40;;;;;;;;;;5096219;27;20230;-77
2021/03/18 14:46:06;;;;;;;7.70;5.17;;;;;;;;;;5111463;27;20255;-77
2021/03/18 14:48:34;;;;;;;9.07;5.57;;;;;;;;;;5105417;28;20237;-77
2021/03/18 14:51:02;;;;;;;6.90;5.07;;;;;;;;;;5099320;28;20226;-77
2021/03/18 14:53:29;;;;;;;7.07;5.07;;;;;;;;;;5039560;28;20722;-78
2021/03/18 14:55:57;;;;;;;6.33;4.80;;;;;;;;;;4964297;27;21828;-79
2021/03/18 14:58:46;;;;;;;5.00;3.77;;;;;;;;;;4954558;27;20963;-77
2021/03/18 15:01:13;;;;;;;7.20;4.80;;;;;;;;;;4965337;27;20236;-79